Time;durP1;ratioP1;P1;durP2;ratioP2;P2;SDS_P1;SDS_P2;PMS_P1;PMS_P2;Temp;Humidity;BMP_temperature;BMP_pressure;BME280_temperature;BME280_humidity;BME280_pressure;Samples;Min_cycle;Max_cycle;Signal;HPM_P1;HPM_P2
2021/05/06 10:16:11;;;;;;;3.00;1.10;;;;;;;15.56;45.72;99633.22;1680158;84;21186;-62
2021/05/06 10:18:41;;;;;;;1.87;1.20;;;;;;;15.55;45.48;99636.52;1690430;83;21178;-65
2021/05/06 10:21:11;;;;;;;2.15;1.20;;;;;;;15.58;45.87;99629.69;1696223;83;21106;-66
2021/05/06 10:23:38;;;;;;;1.70;1.27;;;;;;;15.69;45.10;99633.50;1691413;84;21042;-62
2021/05/06 10:26:06;;;;;;;4.35;1.30;;;;;;;15.74;44.50;99636.34;1687571;84;21329;-67
2021/05/06 10:28:34;;;;;;;1.65;1.20;;;;;;;15.76;44.34;99631.41;1691529;84;21772;-62
2021/05/06 10:31:08;;;;;;;2.87;1.20;;;;;;;15.78;44.07;99627.85;1691775;84;21292;-64
2021/05/06 10:33:38;;;;;;;1.62;1.10;;;;;;;15.85;43.58;99640.95;1690034;84;21133;-66
2021/05/06 10:36:06;;;;;;;2.47;1.12;;;;;;;15.88;43.11;99636.86;1667855;85;21311;-64
2021/05/06 10:38:41;;;;;;;3.47;1.77;;;;;;;15.93;42.77;99651.59;1666097;84;21282;-64
2021/05/06 10:41:29;;;;;;;1.15;1.00;;;;;;;16.02;43.18;99654.23;1693381;84;21197;-66
2021/05/06 10:44:02;;;;;;;2.22;1.15;;;;;;;16.15;41.89;99640.61;1689637;84;21231;-65
2021/05/06 10:46:58;;;;;;;1.80;1.20;;;;;;;16.22;41.94;99646.80;1690328;84;21964;-64
2021/05/06 10:49:29;;;;;;;4.42;1.27;;;;;;;16.25;41.79;99660.66;1690914;84;21272;-63
2021/05/06 10:52:00;;;;;;;1.92;1.20;;;;;;;16.28;41.93;99651.89;1688507;84;21273;-63
2021/05/06 10:54:52;;;;;;;2.02;1.00;;;;;;;16.36;40.94;99647.31;1697482;83;21085;-64
2021/05/06 10:57:28;;;;;;;1.40;1.10;;;;;;;16.42;39.67;99652.66;1657088;85;21093;-64
2021/05/06 10:59:55;;;;;;;2.10;1.00;;;;;;;16.43;39.90;99657.64;1651854;85;21812;-64
2021/05/06 11:02:48;;;;;;;2.85;1.05;;;;;;;16.48;39.35;99646.66;1651427;85;21083;-67
2021/05/06 11:05:22;;;;;;;7.87;4.03;;;;;;;16.60;39.16;99648.77;1652744;86;21130;-67
2021/05/06 11:08:09;;;;;;;4.53;1.60;;;;;;;16.74;39.17;99641.80;1626995;87;21076;-66
2021/05/06 11:10:49;;;;;;;2.27;1.32;;;;;;;16.93;37.99;99652.58;1689368;84;21122;-67
2021/05/06 11:13:26;;;;;;;1.87;1.12;;;;;;;16.99;37.67;99651.55;1693340;84;21303;-68
2021/05/06 11:15:51;;;;;;;3.50;1.25;;;;;;;17.00;37.68;99655.98;1681841;84;21741;-63
2021/05/06 11:18:49;;;;;;;1.50;1.10;;;;;;;17.04;37.23;99642.76;1674797;84;21126;-65
2021/05/06 11:21:36;;;;;;;1.77;0.80;;;;;;;17.02;36.56;99646.88;1674865;85;21094;-65
2021/05/06 11:24:25;;;;;;;3.90;1.00;;;;;;;17.02;36.56;99646.88;1652509;85;21074;-68
2021/05/06 11:27:12;;;;;;;2.95;1.10;;;;;;;17.06;36.84;99653.57;1667346;85;21403;-68
2021/05/06 11:29:43;;;;;;;2.08;0.78;;;;;;;17.17;36.71;99653.98;1667412;85;21089;-67
2021/05/06 11:32:26;;;;;;;2.67;1.00;;;;;;;17.31;36.76;99652.48;1667473;86;21203;-67
2021/05/06 11:34:54;;;;;;;1.37;0.88;;;;;;;17.37;36.30;99658.36;1666551;86;21401;-66
2021/05/06 11:37:26;;;;;;;1.00;0.70;;;;;;;17.37;36.41;99653.37;1655556;84;21078;-66
2021/05/06 11:40:07;;;;;;;2.40;0.78;;;;;;;17.37;35.99;99661.12;1651087;87;21081;-66
2021/05/06 11:42:40;;;;;;;2.45;0.80;;;;;;;17.36;34.83;99671.08;1610405;87;21355;-65
2021/05/06 11:45:28;;;;;;;1.98;0.70;;;;;;;17.28;34.20;99667.39;1650938;87;21208;-63
2021/05/06 11:47:57;;;;;;;2.05;0.70;;;;;;;17.27;34.51;99661.56;1650812;87;21099;-62
2021/05/06 11:50:28;;;;;;;0.85;0.60;;;;;;;17.33;34.30;99671.59;1650824;87;21072;-62
2021/05/06 11:52:56;;;;;;;1.50;0.80;;;;;;;17.34;34.11;99670.50;1651211;87;21333;-66
2021/05/06 11:55:35;;;;;;;1.15;0.60;;;;;;;17.35;33.96;99676.33;1651016;85;21104;-66
2021/05/06 11:58:03;;;;;;;3.05;0.70;;;;;;;17.38;33.71;99675.27;1650241;85;21401;-65
2021/05/06 12:00:32;;;;;;;1.57;0.60;;;;;;;17.44;33.26;99663.14;1690993;84;21043;-67
2021/05/06 12:03:09;;;;;;;2.37;0.60;;;;;;;17.54;32.74;99659.64;1691792;84;21212;-67
2021/05/06 12:05:58;;;;;;;;;;;;;;;17.57;32.91;99664.69;1698081;84;21160;-67
2021/05/06 12:08:43;;;;;;;1.72;0.80;;;;;;;17.63;33.08;99669.73;1701578;83;20267;-65
2021/05/06 12:11:11;;;;;;;2.50;0.60;;;;;;;17.74;31.91;99666.00;1652687;85;21334;-66
2021/05/06 12:13:41;;;;;;;1.10;0.60;;;;;;;17.78;30.87;99664.38;1651027;87;21310;-66
2021/05/06 12:16:18;;;;;;;1.37;0.70;;;;;;;17.80;31.01;99672.42;1651664;87;21097;-66
2021/05/06 12:19:04;;;;;;;1.07;0.68;;;;;;;17.79;31.40;99671.58;1688253;84;21097;-66
2021/05/06 12:21:47;;;;;;;0.80;0.70;;;;;;;17.86;31.74;99665.83;1691115;84;21415;-67
2021/05/06 12:24:37;;;;;;;1.98;0.70;;;;;;;18.06;31.68;99660.45;1690492;84;21078;-69
2021/05/06 12:27:28;;;;;;;1.57;1.00;;;;;;;18.31;31.56;99656.52;1687765;84;21322;-67
2021/05/06 12:30:02;;;;;;;2.15;1.00;;;;;;;18.40;30.66;99652.69;1691477;84;21409;-67
2021/05/06 12:32:37;;;;;;;3.35;0.80;;;;;;;18.23;31.05;99648.70;1689973;84;21856;-62
2021/05/06 12:35:02;;;;;;;2.15;0.80;;;;;;;18.11;31.11;99663.27;1686135;84;21188;-64
2021/05/06 12:37:32;;;;;;;1.32;0.88;;;;;;;18.01;31.23;99648.77;1685884;84;21102;-67
2021/05/06 12:40:00;;;;;;;4.05;1.30;;;;;;;18.08;31.69;99653.26;1686010;84;21039;-66
2021/05/06 12:42:33;;;;;;;2.45;0.98;;;;;;;18.17;31.75;99648.89;1686040;84;21372;-66
2021/05/06 12:45:07;;;;;;;1.20;0.70;;;;;;;18.23;31.63;99652.02;1685342;84;21102;-67
2021/05/06 12:47:43;;;;;;;1.40;1.05;;;;;;;18.26;31.75;99656.48;1676078;84;21082;-65
2021/05/06 12:50:30;;;;;;;1.13;0.80;;;;;;;18.31;31.24;99650.97;1688631;83;21731;-64
2021/05/06 12:52:56;;;;;;;1.52;0.88;;;;;;;18.36;31.33;99646.01;1689720;84;21410;-62
2021/05/06 12:55:30;;;;;;;2.05;1.00;;;;;;;18.27;31.30;99655.38;1689483;84;21075;-64
2021/05/06 12:58:13;;;;;;;1.82;0.75;;;;;;;18.22;31.70;99655.89;1688003;84;21845;-63
2021/05/06 13:00:58;;;;;;;1.12;0.90;;;;;;;18.19;32.05;99648.08;1688444;84;21062;-63
2021/05/06 13:03:31;;;;;;;2.85;0.80;;;;;;;18.17;31.80;99662.75;1689564;84;21150;-65
2021/05/06 13:06:08;;;;;;;1.30;0.88;;;;;;;18.12;31.69;99665.48;1690130;84;21067;-65
2021/05/06 13:08:39;;;;;;;2.70;0.82;;;;;;;17.96;31.30;99662.59;1693335;84;21900;-66
2021/05/06 13:11:09;;;;;;;1.05;0.75;;;;;;;17.93;31.67;99656.19;1691601;84;21160;-65
2021/05/06 13:13:43;;;;;;;2.37;0.70;;;;;;;17.96;31.75;99652.05;1691232;84;21074;-66
2021/05/06 13:16:14;;;;;;;1.22;0.70;;;;;;;18.13;31.32;99652.75;1691120;84;21803;-65
2021/05/06 13:19:05;;;;;;;1.47;0.80;;;;;;;18.23;30.62;99653.41;1689329;84;21803;-64
2021/05/06 13:21:34;;;;;;;4.75;0.98;;;;;;;18.28;30.62;99643.73;1684404;84;21226;-63
2021/05/06 13:24:04;;;;;;;1.15;1.00;;;;;;;18.24;30.87;99647.59;1699160;83;21061;-62
2021/05/06 13:26:35;;;;;;;1.55;0.90;;;;;;;18.19;31.20;99650.84;1689217;84;21357;-63
2021/05/06 13:29:12;;;;;;;3.05;0.90;;;;;;;18.20;31.37;99652.52;1691651;84;21090;-72
2021/05/06 13:31:39;;;;;;;2.55;1.30;;;;;;;18.17;30.91;99659.98;1691175;84;21066;-70
2021/05/06 13:34:24;;;;;;;24.30;3.55;;;;;;;18.13;31.13;99652.75;1688569;84;21085;-67
2021/05/06 13:37:03;;;;;;;7.25;2.00;;;;;;;18.16;30.90;99649.99;1688624;84;21444;-65
2021/05/06 13:39:32;;;;;;;3.00;1.10;;;;;;;18.31;30.54;99659.84;1687478;84;21244;-70
2021/05/06 13:42:00;;;;;;;2.85;1.10;;;;;;;18.48;30.22;99661.06;1689376;84;21242;-65
2021/05/06 13:44:31;;;;;;;1.07;0.70;;;;;;;18.61;29.45;99653.13;1689814;84;21057;-66
2021/05/06 13:47:02;;;;;;;8.70;1.50;;;;;;;18.77;28.40;99654.60;1688709;84;21267;-66
2021/05/06 13:49:32;;;;;;;7.47;1.00;;;;;;;18.77;28.04;99644.34;1668006;84;21042;-63
2021/05/06 13:52:00;;;;;;;5.45;1.62;;;;;;;18.93;28.38;99646.11;1688766;84;21504;-68
2021/05/06 13:54:28;;;;;;;6.55;1.45;;;;;;;19.09;27.82;99642.84;1688925;84;21089;-68
2021/05/06 13:56:57;;;;;;;3.87;0.90;;;;;;;19.32;26.95;99639.58;1690482;84;21082;-68
2021/05/06 13:59:25;;;;;;;9.28;2.45;;;;;;;19.39;26.39;99646.81;1691298;84;21320;-68
2021/05/06 14:01:55;;;;;;;3.75;1.30;;;;;;;19.41;26.01;99645.98;1691794;84;21217;-68
2021/05/06 14:04:22;;;;;;;2.22;0.90;;;;;;;19.32;25.84;99647.91;1690951;84;21302;-65
2021/05/06 14:06:51;;;;;;;11.85;3.27;;;;;;;19.15;25.61;99652.02;1688806;85;21058;-67
2021/05/06 14:09:19;;;;;;;1.40;0.88;;;;;;;18.93;26.07;99651.66;1691955;84;21347;-65
2021/05/06 14:11:48;;;;;;;2.98;1.02;;;;;;;18.81;26.21;99662.67;1679796;84;21180;-65
2021/05/06 14:14:18;;;;;;;2.42;0.90;;;;;;;18.72;25.95;99655.97;1679882;85;21364;-69
2021/05/06 14:16:46;;;;;;;3.72;0.95;;;;;;;18.76;26.02;99662.09;1679780;85;21105;-70
2021/05/06 14:19:13;;;;;;;1.80;1.00;;;;;;;18.78;26.37;99668.77;1687443;84;21375;-72
2021/05/06 14:21:46;;;;;;;1.65;0.82;;;;;;;18.80;26.17;99656.84;1686443;83;21095;-65
2021/05/06 14:24:14;;;;;;;2.08;0.78;;;;;;;18.78;26.03;99664.05;1696781;84;21100;-67
2021/05/06 14:26:49;;;;;;;7.35;1.72;;;;;;;18.60;26.42;99656.98;1696766;83;21072;-70
2021/05/06 14:29:14;;;;;;;1.92;1.12;;;;;;;18.66;26.95;99663.42;1696033;83;21348;-68
2021/05/06 14:31:42;;;;;;;12.13;1.42;;;;;;;18.87;26.94;99663.84;1696939;84;21227;-71
2021/05/06 14:34:10;;;;;;;1.82;0.90;;;;;;;19.07;26.49;99658.94;1690882;84;21302;-68
2021/05/06 14:36:38;;;;;;;1.70;0.98;;;;;;;19.23;26.39;99659.27;1668697;86;21388;-71
2021/05/06 14:39:08;;;;;;;4.30;1.35;;;;;;;19.47;26.37;99656.00;1678603;84;21089;-72
2021/05/06 14:41:37;;;;;;;4.00;2.22;;;;;;;19.85;25.45;99654.17;1701711;84;21066;-72
2021/05/06 14:44:05;;;;;;;5.45;1.20;;;;;;;20.22;25.19;99655.88;1670280;84;21269;-72
2021/05/06 14:46:33;;;;;;;3.42;0.90;;;;;;;20.69;24.54;99651.37;1671208;84;21351;-71
2021/05/06 14:49:00;;;;;;;2.00;0.93;;;;;;;21.14;23.35;99681.60;1670201;85;21815;-74
2021/05/06 14:51:28;;;;;;;2.37;1.00;;;;;;;21.37;23.13;99666.20;1665437;84;21160;-71
2021/05/06 14:53:55;;;;;;;3.83;1.00;;;;;;;21.50;23.29;99663.64;1616054;88;21117;-73
2021/05/06 14:56:22;;;;;;;3.67;1.20;;;;;;;21.76;22.94;99676.03;1653744;85;21121;-73
2021/05/06 14:58:50;;;;;;;2.02;0.90;;;;;;;21.97;22.67;99673.36;1642935;86;21328;-72
2021/05/06 15:01:17;;;;;;;4.40;1.30;;;;;;;22.18;22.27;99668.52;1665158;85;21057;-73
2021/05/06 15:03:45;;;;;;;1.47;0.90;;;;;;;22.23;22.37;99672.66;1663594;85;21790;-75
2021/05/06 15:06:13;;;;;;;2.22;1.00;;;;;;;22.09;22.09;99674.42;1667278;84;21091;-75
2021/05/06 15:08:43;;;;;;;5.28;1.02;;;;;;;21.71;22.66;99672.71;1658240;85;21081;-69
2021/05/06 15:11:12;;;;;;;2.92;0.93;;;;;;;21.43;23.10;99676.20;1657448;84;21207;-70
2021/05/06 15:13:39;;;;;;;2.62;0.90;;;;;;;21.28;23.17;99676.27;1666560;84;21030;-68
2021/05/06 15:16:06;;;;;;;4.08;1.00;;;;;;;21.67;22.51;99681.95;1654701;85;21229;-75
2021/05/06 15:18:34;;;;;;;2.00;1.02;;;;;;;22.26;22.11;99676.82;1655482;85;21216;-65
2021/05/06 15:21:04;;;;;;;1.52;1.02;;;;;;;23.04;21.36;99676.62;1657741;85;21057;-76
2021/05/06 15:23:31;;;;;;;2.85;1.20;;;;;;;23.84;20.92;99670.28;1659453;85;21200;-67
2021/05/06 15:25:59;;;;;;;3.60;1.30;;;;;;;24.33;20.32;99675.41;1664343;85;21124;-69
2021/05/06 15:28:26;;;;;;;3.02;1.00;;;;;;;24.25;20.51;99697.08;1665794;85;21088;-80
2021/05/06 15:30:56;;;;;;;3.87;1.07;;;;;;;24.45;19.56;99691.73;1654470;84;21277;-68
2021/05/06 15:33:23;;;;;;;3.05;1.10;;;;;;;24.58;19.36;99683.92;1654699;85;21396;-75
2021/05/06 15:35:50;;;;;;;2.65;1.15;;;;;;;24.63;19.57;99683.27;1645158;85;21333;-70
2021/05/06 15:38:19;;;;;;;3.05;1.40;;;;;;;25.01;19.11;99684.56;1660802;86;21082;-72
2021/05/06 15:40:51;;;;;;;2.72;1.12;;;;;;;25.39;18.70;99693.62;1660757;86;21317;-68
2021/05/06 15:43:19;;;;;;;2.95;1.25;;;;;;;25.64;18.74;99690.83;1660621;86;21066;-73
2021/05/06 15:45:48;;;;;;;3.22;1.10;;;;;;;25.96;18.14;99693.21;1658682;86;21161;-71
2021/05/06 15:48:16;;;;;;;7.65;1.70;;;;;;;25.87;17.99;99707.17;1658249;86;21811;-67
2021/05/06 15:50:43;;;;;;;3.77;1.67;;;;;;;25.73;18.27;99704.40;1690297;85;21054;-69
2021/05/06 15:53:10;;;;;;;2.80;1.90;;;;;;;25.76;18.02;99711.36;1690253;85;21062;-65
2021/05/06 15:55:38;;;;;;;3.10;1.95;;;;;;;25.82;17.67;99713.73;1690160;85;21075;-74
2021/05/06 15:58:07;;;;;;;3.05;1.85;;;;;;;25.87;17.50;99708.57;1666650;85;21109;-76
2021/05/06 16:00:34;;;;;;;4.83;1.95;;;;;;;26.02;17.25;99711.63;1666693;86;21069;-69
2021/05/06 16:03:07;;;;;;;2.55;1.77;;;;;;;26.07;17.64;99712.34;1666661;85;21034;-72
2021/05/06 16:05:35;;;;;;;3.37;2.02;;;;;;;26.14;17.84;99714.70;1668485;85;21084;-69
2021/05/06 16:08:02;;;;;;;5.47;2.40;;;;;;;26.27;17.84;99723.64;1670351;85;21137;-68
2021/05/06 16:10:30;;;;;;;7.90;2.98;;;;;;;26.17;17.81;99724.73;1657052;86;21081;-68
2021/05/06 16:12:57;;;;;;;5.80;2.55;;;;;;;25.96;18.06;99723.52;1666964;86;21065;-69
2021/05/06 16:15:26;;;;;;;6.83;2.58;;;;;;;25.57;18.12;99729.13;1666468;85;21089;-67
2021/05/06 16:17:53;;;;;;;4.15;2.20;;;;;;;24.78;18.89;99734.59;1664856;86;21349;-69
2021/05/06 16:20:27;;;;;;;3.67;2.10;;;;;;;24.03;19.57;99729.87;1662394;86;21340;-68
2021/05/06 16:22:50;;;;;;;5.42;2.00;;;;;;;23.31;19.96;99738.34;1651354;85;21121;-69
2021/05/06 16:25:17;;;;;;;3.87;2.12;;;;;;;22.65;20.44;99743.74;1624557;88;21342;-72
2021/05/06 16:27:45;;;;;;;5.30;2.33;;;;;;;22.08;20.98;99743.34;1651182;85;21072;-72
2021/05/06 16:30:15;;;;;;;4.85;2.37;;;;;;;21.44;21.49;99742.80;1679787;85;21062;-70
2021/05/06 16:32:43;;;;;;;4.95;2.30;;;;;;;21.00;21.98;99744.60;1679638;85;21061;-68
2021/05/06 16:35:19;;;;;;;4.42;2.50;;;;;;;20.50;22.53;99747.16;1679535;85;21328;-70
2021/05/06 16:37:51;;;;;;;6.15;2.35;;;;;;;19.95;23.08;99754.28;1679046;84;21372;-70
2021/05/06 16:40:29;;;;;;;4.35;2.55;;;;;;;19.45;23.50;99742.97;1679560;84;21264;-71
2021/05/06 16:45:43;;;;;;;21.25;7.15;;;;;;;18.66;24.95;99755.84;1679784;85;21154;-65
2021/05/06 16:48:12;;;;;;;8.03;3.40;;;;;;;18.33;25.77;99751.39;1668622;85;21078;-67
2021/05/06 16:50:41;;;;;;;6.62;3.50;;;;;;;18.08;26.41;99754.45;1673212;85;21081;-65
2021/05/06 16:53:09;;;;;;;7.15;4.00;;;;;;;17.87;26.88;99756.19;1673157;85;21083;-70
2021/05/06 16:58:37;;;;;;;16.20;5.03;;;;;;;17.39;27.88;99761.40;1623889;87;21804;-61
2021/05/06 17:01:05;;;;;;;15.18;4.85;;;;;;;17.14;28.27;99756.08;1668431;85;21056;-71
2021/05/06 17:03:34;;;;;;;7.37;3.77;;;;;;;16.99;28.63;99760.32;1654949;86;21338;-69
2021/05/06 17:06:01;;;;;;;7.95;4.22;;;;;;;16.83;28.91;99753.41;1644756;86;21269;-67
2021/05/06 17:08:29;;;;;;;8.70;4.42;;;;;;;16.71;29.37;99763.20;1651644;87;21142;-66
2021/05/06 17:10:56;;;;;;;6.25;3.85;;;;;;;16.56;29.51;99762.92;1640127;87;21105;-65
2021/05/06 17:13:24;;;;;;;7.22;3.90;;;;;;;16.46;29.82;99753.92;1651785;87;21090;-72
2021/05/06 17:15:55;;;;;;;7.15;3.85;;;;;;;16.38;29.99;99752.96;1655057;85;21792;-64
2021/05/06 17:18:24;;;;;;;6.08;3.33;;;;;;;16.32;30.14;99759.50;1672543;85;21217;-66
2021/05/06 17:20:51;;;;;;;8.08;3.47;;;;;;;16.21;30.24;99759.00;1672479;85;21076;-62
2021/05/06 17:23:19;;;;;;;8.00;3.60;;;;;;;16.10;30.28;99757.44;1669903;85;21146;-61
2021/05/06 17:25:47;;;;;;;8.55;3.80;;;;;;;16.01;30.58;99764.47;1672566;85;21311;-62
2021/05/06 17:28:15;;;;;;;5.20;3.10;;;;;;;15.93;30.75;99762.65;1672591;85;21271;-62
2021/05/06 17:30:42;;;;;;;7.60;3.45;;;;;;;15.79;30.87;99766.27;1672704;85;21345;-61
2021/05/06 17:33:10;;;;;;;6.97;4.08;;;;;;;15.67;31.14;99766.31;1616349;87;21324;-63
2021/05/06 17:35:37;;;;;;;7.45;3.98;;;;;;;15.58;31.34;99765.54;1616533;87;21821;-62
2021/05/06 17:38:06;;;;;;;6.65;3.62;;;;;;;15.50;31.58;99771.72;1616538;88;21880;-61
2021/05/06 17:40:33;;;;;;;6.05;3.47;;;;;;;15.40;31.80;99763.23;1634557;86;21080;-61
2021/05/06 17:43:00;;;;;;;6.60;3.83;;;;;;;15.33;32.11;99773.57;1645569;86;21860;-62
2021/05/06 17:45:28;;;;;;;9.43;5.58;;;;;;;15.28;32.23;99783.66;1645705;86;21757;-63
2021/05/06 17:47:55;;;;;;;6.70;3.12;;;;;;;15.25;32.22;99782.77;1645643;86;21289;-62
2021/05/06 17:50:26;;;;;;;7.17;3.10;;;;;;;15.22;32.28;99785.48;1645597;86;21054;-61
2021/05/06 17:52:55;;;;;;;6.62;3.00;;;;;;;15.17;32.30;99786.75;1642372;86;21204;-62
2021/05/06 17:55:24;;;;;;;4.60;2.72;;;;;;;15.10;32.34;99787.42;1651797;86;21050;-61
2021/05/06 17:57:51;;;;;;;6.62;2.55;;;;;;;15.03;32.22;99790.84;1648220;86;21276;-61
2021/05/06 18:00:21;;;;;;;5.28;2.75;;;;;;;14.99;32.23;99797.39;1634787;86;21305;-62
2021/05/06 18:02:49;;;;;;;9.28;2.75;;;;;;;14.93;32.23;99798.33;1645930;86;21365;-62
2021/05/06 18:05:16;;;;;;;7.08;2.65;;;;;;;14.85;32.70;99802.83;1635464;87;21212;-61
2021/05/06 18:07:46;;;;;;;7.35;3.25;;;;;;;14.80;32.93;99811.81;1660551;86;21098;-63
2021/05/06 18:10:29;;;;;;;6.50;3.22;;;;;;;14.74;33.28;99810.02;1660574;86;21853;-63
2021/05/06 18:12:52;;;;;;;8.10;3.80;;;;;;;14.70;33.80;99817.09;1660096;86;21447;-62
2021/05/06 18:15:21;;;;;;;5.22;2.77;;;;;;;14.61;33.52;99813.55;1660665;86;21098;-61
2021/05/06 18:17:49;;;;;;;10.98;3.17;;;;;;;14.54;33.45;99809.53;1660572;86;21504;-61
2021/05/06 18:20:16;;;;;;;7.42;2.80;;;;;;;14.48;33.24;99817.37;1660631;86;21204;-61
2021/05/06 18:22:44;;;;;;;7.45;2.80;;;;;;;14.41;33.17;99816.07;1660445;86;21155;-63
2021/05/06 18:25:13;;;;;;;6.25;2.27;;;;;;;14.38;33.12;99813.79;1660654;86;21130;-63
2021/05/06 18:27:41;;;;;;;5.65;2.50;;;;;;;14.35;33.06;99816.18;1660543;86;21235;-63
2021/05/06 18:30:12;;;;;;;6.95;2.90;;;;;;;14.30;32.91;99822.37;1660440;86;21208;-63
2021/05/06 18:32:39;;;;;;;6.45;3.20;;;;;;;14.25;32.86;99825.83;1660560;86;21339;-63
2021/05/06 18:35:08;;;;;;;7.87;3.05;;;;;;;14.22;32.83;99822.70;1660589;86;21329;-61
2021/05/06 18:37:36;;;;;;;7.67;3.50;;;;;;;14.20;32.77;99828.45;1660434;86;21383;-62
2021/05/06 18:40:06;;;;;;;10.18;3.80;;;;;;;14.18;32.89;99820.13;1660321;86;21097;-62
2021/05/06 18:42:33;;;;;;;8.58;3.98;;;;;;;14.15;32.96;99831.08;1637661;86;21110;-62
2021/05/06 18:45:00;;;;;;;9.25;4.22;;;;;;;14.14;32.95;99828.02;1660735;86;21102;-61
2021/05/06 18:47:28;;;;;;;12.55;5.10;;;;;;;14.11;32.84;99837.29;1660361;86;21097;-63
2021/05/06 18:49:57;;;;;;;10.98;4.45;;;;;;;14.09;32.89;99832.55;1660612;86;21346;-64
2021/05/06 18:52:25;;;;;;;9.80;4.20;;;;;;;14.06;32.94;99833.02;1660702;86;21819;-61
2021/05/06 18:54:54;;;;;;;10.03;4.37;;;;;;;14.05;32.93;99834.94;1660340;86;21117;-63
2021/05/06 18:57:21;;;;;;;9.88;4.62;;;;;;;14.02;32.86;99831.81;1660673;86;21213;-62
2021/05/06 18:59:49;;;;;;;9.13;4.35;;;;;;;14.00;32.99;99829.29;1660555;85;21888;-62
2021/05/06 19:02:16;;;;;;;12.23;4.05;;;;;;;13.98;33.04;99832.81;1660627;86;21747;-62
2021/05/06 19:04:45;;;;;;;7.97;4.03;;;;;;;13.95;33.62;99838.79;1660590;86;21360;-62
2021/05/06 19:07:12;;;;;;;7.28;3.87;;;;;;;13.92;33.31;99838.72;1660706;85;21109;-61
2021/05/06 19:09:43;;;;;;;11.35;4.40;;;;;;;13.91;33.08;99836.20;1660588;86;21079;-61
2021/05/06 19:12:13;;;;;;;11.38;4.35;;;;;;;13.89;33.23;99835.59;1660211;85;21094;-61
2021/05/06 19:14:40;;;;;;;20.62;10.85;;;;;;;13.85;33.62;99837.97;1660376;86;21796;-60
2021/05/06 19:17:09;;;;;;;13.22;5.83;;;;;;;13.83;34.93;99835.15;1660328;86;21157;-63
2021/05/06 19:19:40;;;;;;;12.25;4.25;;;;;;;13.80;35.99;99848.00;1660574;86;21316;-63
2021/05/06 19:22:08;;;;;;;9.03;4.40;;;;;;;13.68;36.08;99845.73;1660596;86;21836;-62
2021/05/06 19:24:36;;;;;;;11.08;5.08;;;;;;;13.55;36.54;99850.30;1660584;86;21254;-62
2021/05/06 19:27:04;;;;;;;12.03;4.90;;;;;;;13.46;37.05;99853.59;1660598;86;21939;-62
2021/05/06 19:29:38;;;;;;;11.18;4.28;;;;;;;13.37;37.23;99864.06;1660640;86;21097;-62
2021/05/06 19:32:05;;;;;;;13.32;6.12;;;;;;;13.27;37.17;99854.97;1660593;86;21217;-61
2021/05/06 19:34:34;;;;;;;12.23;5.50;;;;;;;13.20;37.44;99857.48;1660681;86;21253;-61
2021/05/06 19:37:01;;;;;;;17.57;6.05;;;;;;;13.14;37.80;99859.74;1660620;86;21118;-61
2021/05/06 19:39:29;;;;;;;11.73;5.33;;;;;;;13.04;38.52;99860.27;1660548;86;21097;-62
2021/05/06 19:41:57;;;;;;;10.40;5.33;;;;;;;12.95;38.79;99862.97;1660613;86;21353;-63
2021/05/06 19:44:30;;;;;;;10.58;4.72;;;;;;;12.89;38.72;99868.84;1660568;86;21793;-61
2021/05/06 19:47:06;;;;;;;9.68;4.28;;;;;;;12.86;38.04;99867.91;1660669;86;21055;-61
2021/05/06 19:49:38;;;;;;;8.88;4.90;;;;;;;12.84;37.76;99869.20;1660668;86;21105;-61
2021/05/06 19:52:06;;;;;;;14.53;5.55;;;;;;;12.83;38.41;99871.12;1660563;86;21197;-63
2021/05/06 19:54:37;;;;;;;10.85;5.35;;;;;;;12.78;39.11;99869.58;1660698;86;21091;-62
2021/05/06 19:57:07;;;;;;;10.85;5.03;;;;;;;12.72;39.52;99877.34;1660494;86;21180;-61
2021/05/06 19:59:35;;;;;;;10.25;5.20;;;;;;;12.67;39.33;99873.06;1660445;86;21356;-63
2021/05/06 20:02:03;;;;;;;12.13;5.72;;;;;;;12.63;39.19;99870.45;1660630;86;21841;-61
2021/05/06 20:04:31;;;;;;;12.07;5.22;;;;;;;12.59;39.77;99871.96;1660603;86;21345;-62
2021/05/06 20:06:59;;;;;;;13.13;5.35;;;;;;;12.54;39.53;99876.75;1660589;86;21347;-61
2021/05/06 20:09:28;;;;;;;11.40;6.28;;;;;;;12.52;39.95;99881.63;1660611;86;21097;-62
2021/05/06 20:11:56;;;;;;;11.97;5.15;;;;;;;12.45;40.17;99880.00;1660708;86;21369;-62
2021/05/06 20:14:38;;;;;;;11.28;6.10;;;;;;;12.40;39.27;99880.67;1660325;85;21329;-62
2021/05/06 20:17:04;;;;;;;12.18;6.33;;;;;;;12.40;39.78;99882.58;1660562;85;21107;-62
2021/05/06 20:19:40;;;;;;;14.28;6.95;;;;;;;12.36;39.93;99882.18;1660433;86;21237;-62
2021/05/06 20:22:06;;;;;;;12.47;6.10;;;;;;;12.26;40.16;99874.39;1660148;86;21134;-62
2021/05/06 20:24:36;;;;;;;10.70;5.22;;;;;;;12.21;40.18;99886.58;1660504;86;21212;-61
2021/05/06 20:27:06;;;;;;;12.37;5.00;;;;;;;12.21;40.11;99882.98;1660713;86;21435;-62
2021/05/06 20:29:35;;;;;;;11.97;4.70;;;;;;;12.19;40.36;99882.37;1660646;86;21105;-62
2021/05/06 20:32:05;;;;;;;9.70;4.50;;;;;;;12.20;40.60;99886.80;1660557;86;21062;-62
2021/05/06 20:34:32;;;;;;;8.43;4.30;;;;;;;12.12;41.07;99889.27;1660567;86;21999;-62
2021/05/06 20:37:00;;;;;;;8.93;4.53;;;;;;;12.06;40.72;99889.63;1660350;86;21153;-62
2021/05/06 20:39:28;;;;;;;7.92;3.85;;;;;;;12.02;41.38;99891.66;1660427;86;21458;-61
2021/05/06 20:42:03;;;;;;;12.28;4.22;;;;;;;11.95;41.98;99892.22;1660241;86;21288;-61
2021/05/06 20:47:08;;;;;;;12.43;4.30;;;;;;;11.82;42.44;99895.03;1660368;86;21329;-62
2021/05/06 20:49:51;;;;;;;13.48;3.87;;;;;;;11.73;42.74;99902.11;1660696;86;21134;-61
2021/05/06 20:52:21;;;;;;;8.15;3.90;;;;;;;11.68;42.69;99901.05;1660710;86;21362;-62
2021/05/06 20:54:50;;;;;;;12.73;3.90;;;;;;;11.60;42.49;99902.13;1660580;86;21082;-62
2021/05/06 20:57:18;;;;;;;9.58;4.28;;;;;;;11.56;42.17;99904.99;1660469;86;21133;-62
2021/05/06 20:59:48;;;;;;;9.38;3.58;;;;;;;11.55;42.43;99907.42;1659072;86;21126;-62
2021/05/06 21:02:19;;;;;;;11.57;3.80;;;;;;;11.52;43.34;99916.09;1658921;86;21328;-62
2021/05/06 21:04:48;;;;;;;15.00;3.67;;;;;;;11.48;43.08;99918.95;1659004;86;21196;-62
2021/05/06 21:07:15;;;;;;;10.03;3.50;;;;;;;11.45;43.24;99922.13;1658886;86;21095;-62
2021/05/06 21:09:43;;;;;;;8.55;3.25;;;;;;;11.37;42.49;99921.83;1658895;86;21333;-62
2021/05/06 21:12:13;;;;;;;7.78;3.75;;;;;;;11.30;42.55;99921.52;1658991;86;21098;-63
2021/05/06 21:14:43;;;;;;;13.95;4.45;;;;;;;11.27;42.45;99928.28;1659048;86;21812;-62
2021/05/06 21:17:15;;;;;;;9.43;4.85;;;;;;;11.27;42.78;99930.18;1658951;86;21105;-62
2021/05/06 21:19:42;;;;;;;17.45;5.10;;;;;;;11.25;42.70;99926.28;1659055;86;21155;-62
2021/05/06 21:22:10;;;;;;;13.65;5.78;;;;;;;11.22;42.86;99932.72;1659055;86;21150;-62
2021/05/06 21:24:38;;;;;;;13.38;6.08;;;;;;;11.21;42.44;99937.89;1658949;86;21221;-62
2021/05/06 21:27:06;;;;;;;13.53;5.97;;;;;;;11.18;42.55;99936.42;1659012;86;21411;-62
2021/05/06 21:29:34;;;;;;;10.00;5.35;;;;;;;11.14;42.50;99938.43;1659038;86;21091;-63
2021/05/06 21:32:04;;;;;;;13.58;6.30;;;;;;;11.09;41.80;99941.28;1658917;86;21313;-62
2021/05/06 21:34:32;;;;;;;15.03;6.65;;;;;;;11.07;41.55;99938.44;1659141;86;21373;-62
2021/05/06 21:36:59;;;;;;;11.93;6.70;;;;;;;10.99;41.75;99938.09;1658925;86;21356;-61
2021/05/06 21:39:27;;;;;;;15.48;6.22;;;;;;;10.96;42.03;99935.78;1659023;86;21348;-61
2021/05/06 21:41:54;;;;;;;11.57;5.42;;;;;;;10.94;42.01;99947.48;1658912;86;21225;-61
2021/05/06 21:44:23;;;;;;;11.85;5.87;;;;;;;10.89;41.97;99947.27;1659052;86;21102;-61
2021/05/06 21:46:50;;;;;;;11.03;5.45;;;;;;;10.84;42.14;99942.95;1658967;86;21315;-62
2021/05/06 21:49:18;;;;;;;10.63;5.30;;;;;;;10.81;42.12;99948.85;1659044;86;21475;-61
2021/05/06 21:51:46;;;;;;;13.70;5.65;;;;;;;10.78;42.47;99941.89;1658955;86;21349;-63
2021/05/06 21:54:13;;;;;;;14.43;6.72;;;;;;;10.76;42.70;99947.27;1659143;86;21046;-61
2021/05/06 21:56:42;;;;;;;13.80;6.67;;;;;;;10.69;42.74;99948.63;1658920;86;21256;-61
2021/05/06 21:59:09;;;;;;;13.85;6.75;;;;;;;10.65;42.97;99950.63;1659727;86;21099;-62
2021/05/06 22:01:37;;;;;;;15.63;7.83;;;;;;;10.63;43.11;99958.22;1660743;86;21338;-61
2021/05/06 22:04:05;;;;;;;9.70;5.50;;;;;;;10.62;43.21;99954.63;1660628;86;21353;-61
2021/05/06 22:06:34;;;;;;;11.50;5.35;;;;;;;10.59;43.32;99958.31;1660443;86;21068;-62
2021/05/06 22:09:03;;;;;;;11.33;5.20;;;;;;;10.52;43.76;99962.94;1660663;86;21080;-61
2021/05/06 22:11:33;;;;;;;14.18;5.90;;;;;;;10.39;44.39;99968.68;1660803;86;21172;-62